sensor_id;sensor_type;location;lat;lon;timestamp;temperature;humidity
516;DHT22;244;48.508;9.052;2023-04-15T00:00:14;5.50;7.10
516;DHT22;244;48.508;9.052;2023-04-15T00:02:42;5.40;7.30
516;DHT22;244;48.508;9.052;2023-04-15T00:05:10;5.40;7.50
516;DHT22;244;48.508;9.052;2023-04-15T00:07:39;5.30;7.40
516;DHT22;244;48.508;9.052;2023-04-15T00:10:12;5.20;7.50
516;DHT22;244;48.508;9.052;2023-04-15T00:12:40;5.20;7.60
516;DHT22;244;48.508;9.052;2023-04-15T00:15:09;5.10;7.60
516;DHT22;244;48.508;9.052;2023-04-15T00:17:37;5.10;7.70
516;DHT22;244;48.508;9.052;2023-04-15T00:20:05;5.00;7.90
516;DHT22;244;48.508;9.052;2023-04-15T00:22:38;5.00;8.00
516;DHT22;244;48.508;9.052;2023-04-15T00:25:05;5.00;8.00
516;DHT22;244;48.508;9.052;2023-04-15T00:27:32;5.00;8.00
516;DHT22;244;48.508;9.052;2023-04-15T00:29:59;5.00;8.20
516;DHT22;244;48.508;9.052;2023-04-15T00:32:28;4.90;8.30
516;DHT22;244;48.508;9.052;2023-04-15T00:34:55;4.90;8.30
516;DHT22;244;48.508;9.052;2023-04-15T00:37:23;4.90;8.40
516;DHT22;244;48.508;9.052;2023-04-15T00:39:50;4.90;8.50
516;DHT22;244;48.508;9.052;2023-04-15T00:42:17;4.90;8.50
516;DHT22;244;48.508;9.052;2023-04-15T00:44:47;4.90;8.50
516;DHT22;244;48.508;9.052;2023-04-15T00:47:15;4.90;8.50
516;DHT22;244;48.508;9.052;2023-04-15T00:49:44;4.80;8.50
516;DHT22;244;48.508;9.052;2023-04-15T00:52:13;4.80;8.50
516;DHT22;244;48.508;9.052;2023-04-15T00:54:40;4.80;8.50
516;DHT22;244;48.508;9.052;2023-04-15T00:57:10;4.70;8.50
516;DHT22;244;48.508;9.052;2023-04-15T00:59:37;4.70;8.50
516;DHT22;244;48.508;9.052;2023-04-15T01:02:04;4.60;8.60
516;DHT22;244;48.508;9.052;2023-04-15T01:04:40;4.60;8.70
516;DHT22;244;48.508;9.052;2023-04-15T01:07:11;4.60;8.90
516;DHT22;244;48.508;9.052;2023-04-15T01:09:38;4.60;9.10
516;DHT22;244;48.508;9.052;2023-04-15T01:12:06;4.60;9.20
516;DHT22;244;48.508;9.052;2023-04-15T01:14:43;4.60;9.30
516;DHT22;244;48.508;9.052;2023-04-15T01:17:13;4.60;9.40
516;DHT22;244;48.508;9.052;2023-04-15T01:19:40;4.60;9.40
516;DHT22;244;48.508;9.052;2023-04-15T01:22:10;4.50;9.40
516;DHT22;244;48.508;9.052;2023-04-15T01:24:38;4.50;9.30
516;DHT22;244;48.508;9.052;2023-04-15T01:27:06;4.50;9.40
516;DHT22;244;48.508;9.052;2023-04-15T01:29:38;4.40;9.40
516;DHT22;244;48.508;9.052;2023-04-15T01:32:06;4.40;9.50
516;DHT22;244;48.508;9.052;2023-04-15T01:34:34;4.40;9.50
516;DHT22;244;48.508;9.052;2023-04-15T01:39:48;4.30;9.60
516;DHT22;244;48.508;9.052;2023-04-15T01:42:17;4.30;9.70
516;DHT22;244;48.508;9.052;2023-04-15T01:44:44;4.30;9.80
516;DHT22;244;48.508;9.052;2023-04-15T01:47:13;4.30;10.60
516;DHT22;244;48.508;9.052;2023-04-15T01:49:40;4.20;10.10
516;DHT22;244;48.508;9.052;2023-04-15T01:52:09;4.30;10.20
516;DHT22;244;48.508;9.052;2023-04-15T01:54:36;4.20;10.10
516;DHT22;244;48.508;9.052;2023-04-15T01:57:03;4.20;10.10
516;DHT22;244;48.508;9.052;2023-04-15T01:59:32;4.20;10.10
516;DHT22;244;48.508;9.052;2023-04-15T02:01:59;4.20;10.20
516;DHT22;244;48.508;9.052;2023-04-15T02:04:26;4.20;10.40
516;DHT22;244;48.508;9.052;2023-04-15T02:06:53;4.20;10.40
516;DHT22;244;48.508;9.052;2023-04-15T02:09:20;4.20;10.60
516;DHT22;244;48.508;9.052;2023-04-15T02:11:47;4.20;10.60
516;DHT22;244;48.508;9.052;2023-04-15T02:14:13;4.10;10.60
516;DHT22;244;48.508;9.052;2023-04-15T02:16:42;4.10;10.70
516;DHT22;244;48.508;9.052;2023-04-15T02:19:09;4.10;10.70
516;DHT22;244;48.508;9.052;2023-04-15T02:21:36;4.10;10.80
516;DHT22;244;48.508;9.052;2023-04-15T02:24:03;4.10;10.80
516;DHT22;244;48.508;9.052;2023-04-15T02:26:30;4.00;10.80
516;DHT22;244;48.508;9.052;2023-04-15T02:29:09;4.00;10.80
516;DHT22;244;48.508;9.052;2023-04-15T02:31:59;3.90;10.70
516;DHT22;244;48.508;9.052;2023-04-15T02:34:28;3.90;10.70
516;DHT22;244;48.508;9.052;2023-04-15T02:36:56;3.80;10.80
516;DHT22;244;48.508;9.052;2023-04-15T02:39:23;3.80;10.80
516;DHT22;244;48.508;9.052;2023-04-15T02:41:51;3.70;10.90
516;DHT22;244;48.508;9.052;2023-04-15T02:44:18;3.70;11.00
516;DHT22;244;48.508;9.052;2023-04-15T02:46:47;3.70;11.30
516;DHT22;244;48.508;9.052;2023-04-15T02:49:18;3.70;11.40
516;DHT22;244;48.508;9.052;2023-04-15T02:51:45;3.60;11.40
516;DHT22;244;48.508;9.052;2023-04-15T02:54:14;3.60;11.50
516;DHT22;244;48.508;9.052;2023-04-15T02:56:41;3.60;11.50
516;DHT22;244;48.508;9.052;2023-04-15T02:59:08;3.60;11.60
516;DHT22;244;48.508;9.052;2023-04-15T03:01:49;3.50;11.50
516;DHT22;244;48.508;9.052;2023-04-15T03:04:28;3.50;11.50
516;DHT22;244;48.508;9.052;2023-04-15T03:06:55;3.40;11.40
516;DHT22;244;48.508;9.052;2023-04-15T03:09:22;3.50;11.50
516;DHT22;244;48.508;9.052;2023-04-15T03:11:49;3.40;11.50
516;DHT22;244;48.508;9.052;2023-04-15T03:14:18;3.40;11.40
516;DHT22;244;48.508;9.052;2023-04-15T03:16:45;3.40;11.50
516;DHT22;244;48.508;9.052;2023-04-15T03:19:12;3.40;11.50
516;DHT22;244;48.508;9.052;2023-04-15T03:21:40;3.40;11.50
516;DHT22;244;48.508;9.052;2023-04-15T03:24:07;3.50;11.60
516;DHT22;244;48.508;9.052;2023-04-15T03:26:34;3.50;11.50
516;DHT22;244;48.508;9.052;2023-04-15T03:29:01;3.50;11.50
516;DHT22;244;48.508;9.052;2023-04-15T03:31:28;3.50;11.50
516;DHT22;244;48.508;9.052;2023-04-15T03:33:55;3.50;11.50
516;DHT22;244;48.508;9.052;2023-04-15T03:36:22;3.50;11.50
516;DHT22;244;48.508;9.052;2023-04-15T03:38:50;3.50;11.50
516;DHT22;244;48.508;9.052;2023-04-15T03:41:17;3.50;11.50
516;DHT22;244;48.508;9.052;2023-04-15T03:43:44;3.50;11.50
516;DHT22;244;48.508;9.052;2023-04-15T03:46:11;3.40;11.40
516;DHT22;244;48.508;9.052;2023-04-15T03:48:38;3.40;11.40
516;DHT22;244;48.508;9.052;2023-04-15T03:51:32;3.30;11.50
516;DHT22;244;48.508;9.052;2023-04-15T03:54:00;3.30;11.70
516;DHT22;244;48.508;9.052;2023-04-15T03:56:27;3.30;11.70
516;DHT22;244;48.508;9.052;2023-04-15T03:58:55;3.20;11.70
516;DHT22;244;48.508;9.052;2023-04-15T04:01:22;3.20;11.80
516;DHT22;244;48.508;9.052;2023-04-15T04:03:49;3.20;12.00
516;DHT22;244;48.508;9.052;2023-04-15T04:06:16;3.10;12.10
516;DHT22;244;48.508;9.052;2023-04-15T04:08:43;3.10;12.10
516;DHT22;244;48.508;9.052;2023-04-15T04:11:12;3.10;12.20
516;DHT22;244;48.508;9.052;2023-04-15T04:13:39;3.10;12.20
516;DHT22;244;48.508;9.052;2023-04-15T04:16:06;3.10;12.40
516;DHT22;244;48.508;9.052;2023-04-15T04:18:33;3.10;12.40
516;DHT22;244;48.508;9.052;2023-04-15T04:21:00;3.10;12.50
516;DHT22;244;48.508;9.052;2023-04-15T04:23:27;3.10;12.50
516;DHT22;244;48.508;9.052;2023-04-15T04:25:54;3.10;13.10
516;DHT22;244;48.508;9.052;2023-04-15T04:28:22;3.10;12.40
516;DHT22;244;48.508;9.052;2023-04-15T04:30:49;3.00;12.30
516;DHT22;244;48.508;9.052;2023-04-15T04:33:16;3.00;12.40
516;DHT22;244;48.508;9.052;2023-04-15T04:35:43;3.00;12.40
516;DHT22;244;48.508;9.052;2023-04-15T04:38:10;3.00;12.40
516;DHT22;244;48.508;9.052;2023-04-15T04:40:37;3.00;12.40
516;DHT22;244;48.508;9.052;2023-04-15T04:43:04;3.00;13.00
516;DHT22;244;48.508;9.052;2023-04-15T04:45:33;3.00;12.50
516;DHT22;244;48.508;9.052;2023-04-15T04:47:59;3.00;12.50
516;DHT22;244;48.508;9.052;2023-04-15T04:50:26;3.00;12.60
516;DHT22;244;48.508;9.052;2023-04-15T04:52:53;3.00;12.60
516;DHT22;244;48.508;9.052;2023-04-15T04:55:21;3.00;12.60
516;DHT22;244;48.508;9.052;2023-04-15T04:57:48;3.00;12.70
516;DHT22;244;48.508;9.052;2023-04-15T05:00:15;3.00;12.80
516;DHT22;244;48.508;9.052;2023-04-15T05:02:43;3.00;12.80
516;DHT22;244;48.508;9.052;2023-04-15T05:05:11;3.00;12.80
516;DHT22;244;48.508;9.052;2023-04-15T05:07:38;3.00;12.80
516;DHT22;244;48.508;9.052;2023-04-15T05:10:08;3.10;12.90
516;DHT22;244;48.508;9.052;2023-04-15T05:12:35;3.10;12.90
516;DHT22;244;48.508;9.052;2023-04-15T05:15:04;3.20;12.90
516;DHT22;244;48.508;9.052;2023-04-15T05:17:31;3.20;12.90
516;DHT22;244;48.508;9.052;2023-04-15T05:20:01;3.30;12.90
516;DHT22;244;48.508;9.052;2023-04-15T05:22:28;3.30;13.00
516;DHT22;244;48.508;9.052;2023-04-15T05:24:55;3.40;13.10
516;DHT22;244;48.508;9.052;2023-04-15T05:27:22;3.40;13.00
516;DHT22;244;48.508;9.052;2023-04-15T05:29:49;3.50;13.70
516;DHT22;244;48.508;9.052;2023-04-15T05:32:16;3.60;13.00
516;DHT22;244;48.508;9.052;2023-04-15T05:34:43;3.60;13.00
516;DHT22;244;48.508;9.052;2023-04-15T05:37:11;3.70;12.90
516;DHT22;244;48.508;9.052;2023-04-15T05:39:38;3.70;12.80
516;DHT22;244;48.508;9.052;2023-04-15T05:42:05;3.80;12.80
516;DHT22;244;48.508;9.052;2023-04-15T05:44:34;3.90;12.80
516;DHT22;244;48.508;9.052;2023-04-15T05:47:01;3.90;12.80
516;DHT22;244;48.508;9.052;2023-04-15T05:49:30;4.10;12.80
516;DHT22;244;48.508;9.052;2023-04-15T05:51:57;4.10;12.80
516;DHT22;244;48.508;9.052;2023-04-15T05:54:25;4.20;12.70
516;DHT22;244;48.508;9.052;2023-04-15T05:56:52;4.30;12.70
516;DHT22;244;48.508;9.052;2023-04-15T05:59:19;4.30;12.50
516;DHT22;244;48.508;9.052;2023-04-15T06:01:46;4.40;12.40
516;DHT22;244;48.508;9.052;2023-04-15T06:04:13;4.40;12.40
516;DHT22;244;48.508;9.052;2023-04-15T06:06:41;4.40;12.40
516;DHT22;244;48.508;9.052;2023-04-15T06:09:09;4.50;12.30
516;DHT22;244;48.508;9.052;2023-04-15T06:11:37;4.50;12.30
516;DHT22;244;48.508;9.052;2023-04-15T06:14:05;4.50;12.20
516;DHT22;244;48.508;9.052;2023-04-15T06:16:32;4.50;12.10
516;DHT22;244;48.508;9.052;2023-04-15T06:19:01;4.60;12.20
516;DHT22;244;48.508;9.052;2023-04-15T06:21:28;4.70;12.30
516;DHT22;244;48.508;9.052;2023-04-15T06:23:55;4.70;12.30
516;DHT22;244;48.508;9.052;2023-04-15T06:26:22;4.70;12.30
516;DHT22;244;48.508;9.052;2023-04-15T06:28:51;4.80;12.30
516;DHT22;244;48.508;9.052;2023-04-15T06:31:21;4.80;12.30
516;DHT22;244;48.508;9.052;2023-04-15T06:33:50;4.90;12.40
516;DHT22;244;48.508;9.052;2023-04-15T06:54:28;5.80;11.90
516;DHT22;244;48.508;9.052;2023-04-15T06:56:55;6.00;11.80
516;DHT22;244;48.508;9.052;2023-04-15T06:59:22;6.20;11.70
516;DHT22;244;48.508;9.052;2023-04-15T07:01:49;6.40;11.60
516;DHT22;244;48.508;9.052;2023-04-15T07:04:16;6.60;11.50
516;DHT22;244;48.508;9.052;2023-04-15T07:06:43;6.80;11.30
516;DHT22;244;48.508;9.052;2023-04-15T07:09:11;7.10;11.30
516;DHT22;244;48.508;9.052;2023-04-15T07:11:41;7.40;11.10
516;DHT22;244;48.508;9.052;2023-04-15T07:14:07;7.60;10.80
516;DHT22;244;48.508;9.052;2023-04-15T07:16:34;7.90;10.60
516;DHT22;244;48.508;9.052;2023-04-15T07:19:01;8.10;10.30
516;DHT22;244;48.508;9.052;2023-04-15T07:21:28;8.30;10.10
516;DHT22;244;48.508;9.052;2023-04-15T07:23:55;8.60;10.00
516;DHT22;244;48.508;9.052;2023-04-15T07:26:25;8.80;9.60
516;DHT22;244;48.508;9.052;2023-04-15T07:28:57;9.00;9.30
516;DHT22;244;48.508;9.052;2023-04-15T07:31:24;9.20;9.20
516;DHT22;244;48.508;9.052;2023-04-15T07:33:51;9.40;9.00
516;DHT22;244;48.508;9.052;2023-04-15T07:36:18;9.50;8.80
516;DHT22;244;48.508;9.052;2023-04-15T07:38:46;9.70;8.70
516;DHT22;244;48.508;9.052;2023-04-15T07:41:12;9.80;8.40
516;DHT22;244;48.508;9.052;2023-04-15T07:43:44;10.00;7.70
516;DHT22;244;48.508;9.052;2023-04-15T07:46:12;10.20;7.50
516;DHT22;244;48.508;9.052;2023-04-15T07:48:39;10.30;7.10
516;DHT22;244;48.508;9.052;2023-04-15T07:51:07;10.50;6.90
516;DHT22;244;48.508;9.052;2023-04-15T07:53:35;10.50;6.30
516;DHT22;244;48.508;9.052;2023-04-15T07:56:03;10.60;6.30
516;DHT22;244;48.508;9.052;2023-04-15T07:58:30;10.70;6.40
516;DHT22;244;48.508;9.052;2023-04-15T08:00:57;10.90;6.50
516;DHT22;244;48.508;9.052;2023-04-15T08:03:26;11.00;6.60
516;DHT22;244;48.508;9.052;2023-04-15T08:05:53;11.20;6.70
516;DHT22;244;48.508;9.052;2023-04-15T08:08:20;11.30;6.30
516;DHT22;244;48.508;9.052;2023-04-15T08:10:48;11.50;6.20
516;DHT22;244;48.508;9.052;2023-04-15T08:13:15;11.60;5.90
516;DHT22;244;48.508;9.052;2023-04-15T08:15:42;11.80;5.80
516;DHT22;244;48.508;9.052;2023-04-15T08:18:09;11.90;5.50
516;DHT22;244;48.508;9.052;2023-04-15T08:20:38;12.00;5.40
516;DHT22;244;48.508;9.052;2023-04-15T08:23:04;12.10;5.40
516;DHT22;244;48.508;9.052;2023-04-15T08:25:31;12.30;5.30
516;DHT22;244;48.508;9.052;2023-04-15T08:28:01;12.60;5.20
516;DHT22;244;48.508;9.052;2023-04-15T08:30:29;12.80;4.90
516;DHT22;244;48.508;9.052;2023-04-15T08:32:56;13.00;4.70
516;DHT22;244;48.508;9.052;2023-04-15T08:35:23;13.20;4.50
516;DHT22;244;48.508;9.052;2023-04-15T08:37:51;13.50;4.40
516;DHT22;244;48.508;9.052;2023-04-15T08:40:19;13.70;4.10
516;DHT22;244;48.508;9.052;2023-04-15T08:42:48;13.90;3.90
516;DHT22;244;48.508;9.052;2023-04-15T08:45:19;14.10;3.80
516;DHT22;244;48.508;9.052;2023-04-15T08:47:48;14.30;3.60
516;DHT22;244;48.508;9.052;2023-04-15T08:50:19;14.40;3.40
516;DHT22;244;48.508;9.052;2023-04-15T08:52:46;14.50;3.20
516;DHT22;244;48.508;9.052;2023-04-15T08:55:15;14.50;2.90
516;DHT22;244;48.508;9.052;2023-04-15T08:57:43;14.50;2.60
516;DHT22;244;48.508;9.052;2023-04-15T09:00:10;14.50;2.30
516;DHT22;244;48.508;9.052;2023-04-15T09:02:38;14.50;2.10
516;DHT22;244;48.508;9.052;2023-04-15T09:05:07;14.60;2.10
516;DHT22;244;48.508;9.052;2023-04-15T09:07:33;14.60;1.90
516;DHT22;244;48.508;9.052;2023-04-15T09:10:02;14.80;1.80
516;DHT22;244;48.508;9.052;2023-04-15T09:12:32;14.80;2.10
516;DHT22;244;48.508;9.052;2023-04-15T09:15:00;14.90;1.50
516;DHT22;244;48.508;9.052;2023-04-15T09:17:27;14.90;1.20
516;DHT22;244;48.508;9.052;2023-04-15T09:20:07;15.00;1.10
516;DHT22;244;48.508;9.052;2023-04-15T09:22:34;15.10;1.00
516;DHT22;244;48.508;9.052;2023-04-15T09:25:02;15.20;1.00
516;DHT22;244;48.508;9.052;2023-04-15T09:27:30;15.40;1.00
516;DHT22;244;48.508;9.052;2023-04-15T09:30:02;15.40;1.00
516;DHT22;244;48.508;9.052;2023-04-15T09:32:33;15.50;1.00
516;DHT22;244;48.508;9.052;2023-04-15T09:35:10;15.60;1.00
516;DHT22;244;48.508;9.052;2023-04-15T09:37:37;15.90;1.00
516;DHT22;244;48.508;9.052;2023-04-15T09:40:05;16.00;1.00
516;DHT22;244;48.508;9.052;2023-04-15T09:42:34;16.10;1.00
516;DHT22;244;48.508;9.052;2023-04-15T09:45:09;16.20;1.00
516;DHT22;244;48.508;9.052;2023-04-15T09:47:37;16.40;1.00
516;DHT22;244;48.508;9.052;2023-04-15T09:50:04;16.50;1.00
516;DHT22;244;48.508;9.052;2023-04-15T09:52:31;16.50;1.00
516;DHT22;244;48.508;9.052;2023-04-15T09:54:59;16.60;1.00
516;DHT22;244;48.508;9.052;2023-04-15T09:57:34;16.70;1.00
516;DHT22;244;48.508;9.052;2023-04-15T10:00:02;16.90;1.00
516;DHT22;244;48.508;9.052;2023-04-15T10:02:29;17.00;1.00
516;DHT22;244;48.508;9.052;2023-04-15T10:04:58;17.00;1.00
516;DHT22;244;48.508;9.052;2023-04-15T10:07:26;17.10;1.00
516;DHT22;244;48.508;9.052;2023-04-15T10:09:54;17.20;1.00
516;DHT22;244;48.508;9.052;2023-04-15T10:12:21;17.20;1.00
516;DHT22;244;48.508;9.052;2023-04-15T10:14:54;17.30;1.00
516;DHT22;244;48.508;9.052;2023-04-15T10:17:22;17.50;1.00
516;DHT22;244;48.508;9.052;2023-04-15T10:19:52;17.60;1.00
516;DHT22;244;48.508;9.052;2023-04-15T10:22:20;17.70;1.00
516;DHT22;244;48.508;9.052;2023-04-15T10:24:48;17.70;1.00
516;DHT22;244;48.508;9.052;2023-04-15T10:27:16;17.80;1.00
516;DHT22;244;48.508;9.052;2023-04-15T10:29:43;17.90;1.00
516;DHT22;244;48.508;9.052;2023-04-15T10:32:12;18.10;1.00
516;DHT22;244;48.508;9.052;2023-04-15T10:34:40;18.30;1.00
516;DHT22;244;48.508;9.052;2023-04-15T10:37:09;18.50;1.00
516;DHT22;244;48.508;9.052;2023-04-15T10:39:51;18.50;1.00
516;DHT22;244;48.508;9.052;2023-04-15T10:42:19;18.60;1.00
516;DHT22;244;48.508;9.052;2023-04-15T10:44:50;18.70;1.00
516;DHT22;244;48.508;9.052;2023-04-15T10:47:24;18.80;1.00
516;DHT22;244;48.508;9.052;2023-04-15T10:49:57;19.10;1.00
516;DHT22;244;48.508;9.052;2023-04-15T10:52:26;19.30;1.00
516;DHT22;244;48.508;9.052;2023-04-15T10:55:01;19.60;1.00
516;DHT22;244;48.508;9.052;2023-04-15T10:57:34;19.80;1.00
516;DHT22;244;48.508;9.052;2023-04-15T11:00:10;20.00;1.00
516;DHT22;244;48.508;9.052;2023-04-15T11:02:41;20.20;1.00
516;DHT22;244;48.508;9.052;2023-04-15T11:05:08;20.20;1.00
516;DHT22;244;48.508;9.052;2023-04-15T11:07:36;20.20;1.00
516;DHT22;244;48.508;9.052;2023-04-15T11:13:27;19.90;1.00
516;DHT22;244;48.508;9.052;2023-04-15T11:15:59;19.90;1.00
516;DHT22;244;48.508;9.052;2023-04-15T11:18:30;19.80;1.00
516;DHT22;244;48.508;9.052;2023-04-15T11:20:59;19.70;1.00
516;DHT22;244;48.508;9.052;2023-04-15T11:23:28;19.70;1.00
516;DHT22;244;48.508;9.052;2023-04-15T11:25:56;19.70;1.00
516;DHT22;244;48.508;9.052;2023-04-15T11:28:25;19.80;1.00
516;DHT22;244;48.508;9.052;2023-04-15T11:30:53;19.70;1.00
516;DHT22;244;48.508;9.052;2023-04-15T11:33:21;19.80;1.00
516;DHT22;244;48.508;9.052;2023-04-15T11:35:50;19.80;1.00
516;DHT22;244;48.508;9.052;2023-04-15T11:38:18;19.90;1.00
516;DHT22;244;48.508;9.052;2023-04-15T11:40:45;19.90;1.00
516;DHT22;244;48.508;9.052;2023-04-15T11:43:13;20.10;1.00
516;DHT22;244;48.508;9.052;2023-04-15T11:45:49;20.10;1.00
516;DHT22;244;48.508;9.052;2023-04-15T11:48:18;20.00;1.00
516;DHT22;244;48.508;9.052;2023-04-15T11:50:45;19.90;1.00
516;DHT22;244;48.508;9.052;2023-04-15T11:53:13;19.80;1.00
516;DHT22;244;48.508;9.052;2023-04-15T11:55:42;19.70;1.00
516;DHT22;244;48.508;9.052;2023-04-15T11:58:12;19.70;1.00
516;DHT22;244;48.508;9.052;2023-04-15T12:00:40;19.80;1.00
516;DHT22;244;48.508;9.052;2023-04-15T12:03:16;19.70;1.00
516;DHT22;244;48.508;9.052;2023-04-15T12:06:11;19.50;1.00
516;DHT22;244;48.508;9.052;2023-04-15T12:09:02;19.20;1.00
516;DHT22;244;48.508;9.052;2023-04-15T12:11:32;18.90;1.00
516;DHT22;244;48.508;9.052;2023-04-15T12:14:03;18.80;1.00
516;DHT22;244;48.508;9.052;2023-04-15T12:16:31;18.70;1.00
516;DHT22;244;48.508;9.052;2023-04-15T12:19:00;18.60;1.00
516;DHT22;244;48.508;9.052;2023-04-15T12:21:33;18.80;1.00
516;DHT22;244;48.508;9.052;2023-04-15T12:24:04;18.90;1.00
516;DHT22;244;48.508;9.052;2023-04-15T12:26:34;18.90;1.00
516;DHT22;244;48.508;9.052;2023-04-15T12:29:02;19.00;1.00
516;DHT22;244;48.508;9.052;2023-04-15T12:31:29;18.90;1.00
516;DHT22;244;48.508;9.052;2023-04-15T12:33:57;18.80;1.00
516;DHT22;244;48.508;9.052;2023-04-15T12:36:24;18.70;1.00
516;DHT22;244;48.508;9.052;2023-04-15T12:38:51;18.60;1.00
516;DHT22;244;48.508;9.052;2023-04-15T12:41:19;18.40;1.00
516;DHT22;244;48.508;9.052;2023-04-15T12:43:47;18.30;1.00
516;DHT22;244;48.508;9.052;2023-04-15T12:46:14;18.30;1.00
516;DHT22;244;48.508;9.052;2023-04-15T12:48:41;18.10;1.00
516;DHT22;244;48.508;9.052;2023-04-15T12:51:08;18.00;1.00
516;DHT22;244;48.508;9.052;2023-04-15T12:53:35;17.80;1.00
516;DHT22;244;48.508;9.052;2023-04-15T12:56:02;17.70;1.00
516;DHT22;244;48.508;9.052;2023-04-15T12:58:30;17.70;1.00
516;DHT22;244;48.508;9.052;2023-04-15T13:00:58;17.80;1.00
516;DHT22;244;48.508;9.052;2023-04-15T13:03:24;18.00;1.00
516;DHT22;244;48.508;9.052;2023-04-15T13:05:51;18.40;1.00
516;DHT22;244;48.508;9.052;2023-04-15T13:08:18;18.80;1.00
516;DHT22;244;48.508;9.052;2023-04-15T13:10:45;19.00;1.00
516;DHT22;244;48.508;9.052;2023-04-15T13:13:12;18.90;1.00
516;DHT22;244;48.508;9.052;2023-04-15T13:15:41;18.90;1.00
516;DHT22;244;48.508;9.052;2023-04-15T13:18:10;19.00;1.00
516;DHT22;244;48.508;9.052;2023-04-15T13:20:37;19.00;1.00
516;DHT22;244;48.508;9.052;2023-04-15T13:23:04;18.90;1.00
516;DHT22;244;48.508;9.052;2023-04-15T13:25:33;18.90;1.00
516;DHT22;244;48.508;9.052;2023-04-15T13:28:00;18.90;1.00
516;DHT22;244;48.508;9.052;2023-04-15T13:30:27;18.80;1.00
516;DHT22;244;48.508;9.052;2023-04-15T13:32:56;18.60;1.00
516;DHT22;244;48.508;9.052;2023-04-15T13:35:23;18.20;1.00
516;DHT22;244;48.508;9.052;2023-04-15T13:37:49;18.00;1.00
516;DHT22;244;48.508;9.052;2023-04-15T13:40:18;17.80;1.00
516;DHT22;244;48.508;9.052;2023-04-15T13:42:45;17.70;1.00
516;DHT22;244;48.508;9.052;2023-04-15T13:45:13;17.80;1.00
516;DHT22;244;48.508;9.052;2023-04-15T13:47:41;18.00;1.00
516;DHT22;244;48.508;9.052;2023-04-15T13:50:12;18.20;1.00
516;DHT22;244;48.508;9.052;2023-04-15T13:52:39;18.40;1.00
516;DHT22;244;48.508;9.052;2023-04-15T13:55:07;18.50;1.00
516;DHT22;244;48.508;9.052;2023-04-15T13:57:36;18.40;1.00
516;DHT22;244;48.508;9.052;2023-04-15T14:00:03;18.20;1.00
516;DHT22;244;48.508;9.052;2023-04-15T14:02:30;17.80;1.00
516;DHT22;244;48.508;9.052;2023-04-15T14:04:57;17.50;1.00
516;DHT22;244;48.508;9.052;2023-04-15T14:07:28;17.30;1.00
516;DHT22;244;48.508;9.052;2023-04-15T14:09:55;16.90;1.00
516;DHT22;244;48.508;9.052;2023-04-15T14:12:24;16.70;1.00
516;DHT22;244;48.508;9.052;2023-04-15T14:14:51;16.40;1.00
516;DHT22;244;48.508;9.052;2023-04-15T14:17:18;16.00;1.00
516;DHT22;244;48.508;9.052;2023-04-15T14:19:45;15.80;1.00
516;DHT22;244;48.508;9.052;2023-04-15T14:22:12;15.80;1.00
516;DHT22;244;48.508;9.052;2023-04-15T14:24:41;15.60;1.00
516;DHT22;244;48.508;9.052;2023-04-15T14:27:08;15.60;1.00
516;DHT22;244;48.508;9.052;2023-04-15T14:29:36;15.60;1.00
516;DHT22;244;48.508;9.052;2023-04-15T14:32:06;15.60;1.00
516;DHT22;244;48.508;9.052;2023-04-15T14:34:33;15.60;1.00
516;DHT22;244;48.508;9.052;2023-04-15T14:37:02;15.60;1.00
516;DHT22;244;48.508;9.052;2023-04-15T14:39:29;15.50;1.00
516;DHT22;244;48.508;9.052;2023-04-15T14:41:57;15.40;1.00
516;DHT22;244;48.508;9.052;2023-04-15T14:44:28;15.40;1.00
516;DHT22;244;48.508;9.052;2023-04-15T14:46:55;15.40;1.00
516;DHT22;244;48.508;9.052;2023-04-15T14:49:22;15.30;1.00
516;DHT22;244;48.508;9.052;2023-04-15T14:51:49;15.30;1.00
516;DHT22;244;48.508;9.052;2023-04-15T14:54:16;15.20;1.00
516;DHT22;244;48.508;9.052;2023-04-15T14:56:42;15.10;1.00
516;DHT22;244;48.508;9.052;2023-04-15T14:59:11;15.00;1.00
516;DHT22;244;48.508;9.052;2023-04-15T15:01:38;15.00;1.00
516;DHT22;244;48.508;9.052;2023-04-15T15:04:05;14.90;1.00
516;DHT22;244;48.508;9.052;2023-04-15T15:06:32;14.80;1.00
516;DHT22;244;48.508;9.052;2023-04-15T15:08:59;14.70;1.00
516;DHT22;244;48.508;9.052;2023-04-15T15:11:26;14.60;1.00
516;DHT22;244;48.508;9.052;2023-04-15T15:13:54;14.70;1.00
516;DHT22;244;48.508;9.052;2023-04-15T15:16:23;14.70;1.00
516;DHT22;244;48.508;9.052;2023-04-15T15:18:50;14.60;1.00
516;DHT22;244;48.508;9.052;2023-04-15T15:21:17;14.60;1.00
516;DHT22;244;48.508;9.052;2023-04-15T15:23:44;14.60;1.00
516;DHT22;244;48.508;9.052;2023-04-15T15:26:12;14.50;1.00
516;DHT22;244;48.508;9.052;2023-04-15T15:28:39;14.50;1.00
516;DHT22;244;48.508;9.052;2023-04-15T15:31:06;14.50;1.00
516;DHT22;244;48.508;9.052;2023-04-15T15:33:37;14.50;1.00
516;DHT22;244;48.508;9.052;2023-04-15T15:36:06;14.50;1.00
516;DHT22;244;48.508;9.052;2023-04-15T15:38:33;14.50;1.00
516;DHT22;244;48.508;9.052;2023-04-15T15:41:06;14.50;1.00
516;DHT22;244;48.508;9.052;2023-04-15T15:43:33;14.50;1.00
516;DHT22;244;48.508;9.052;2023-04-15T15:46:00;14.40;1.00
516;DHT22;244;48.508;9.052;2023-04-15T15:48:30;14.40;1.00
516;DHT22;244;48.508;9.052;2023-04-15T15:51:01;14.40;1.00
516;DHT22;244;48.508;9.052;2023-04-15T15:53:29;14.40;1.00
516;DHT22;244;48.508;9.052;2023-04-15T15:56:05;14.30;1.00
516;DHT22;244;48.508;9.052;2023-04-15T15:58:35;14.30;1.00
516;DHT22;244;48.508;9.052;2023-04-15T16:01:02;14.20;1.00
516;DHT22;244;48.508;9.052;2023-04-15T16:03:34;14.20;1.00
516;DHT22;244;48.508;9.052;2023-04-15T16:06:04;14.20;1.00
516;DHT22;244;48.508;9.052;2023-04-15T16:08:31;14.10;1.00
516;DHT22;244;48.508;9.052;2023-04-15T16:11:01;14.00;1.00
516;DHT22;244;48.508;9.052;2023-04-15T16:13:31;14.00;1.00
516;DHT22;244;48.508;9.052;2023-04-15T16:15:58;13.90;1.00
516;DHT22;244;48.508;9.052;2023-04-15T16:18:27;13.90;1.00
516;DHT22;244;48.508;9.052;2023-04-15T16:20:54;13.90;1.00
516;DHT22;244;48.508;9.052;2023-04-15T16:23:22;13.90;1.00
516;DHT22;244;48.508;9.052;2023-04-15T16:25:49;13.90;1.00
516;DHT22;244;48.508;9.052;2023-04-15T16:28:16;13.90;1.00
516;DHT22;244;48.508;9.052;2023-04-15T16:30:43;13.90;1.00
516;DHT22;244;48.508;9.052;2023-04-15T16:33:11;13.90;1.00
516;DHT22;244;48.508;9.052;2023-04-15T16:35:38;13.90;1.00
516;DHT22;244;48.508;9.052;2023-04-15T16:38:05;13.90;1.00
516;DHT22;244;48.508;9.052;2023-04-15T16:40:33;13.90;1.00
516;DHT22;244;48.508;9.052;2023-04-15T16:43:01;13.90;1.00
516;DHT22;244;48.508;9.052;2023-04-15T16:45:28;13.90;1.00
516;DHT22;244;48.508;9.052;2023-04-15T16:47:55;13.90;1.00
516;DHT22;244;48.508;9.052;2023-04-15T16:50:22;13.90;1.00
516;DHT22;244;48.508;9.052;2023-04-15T16:52:49;13.90;1.00
516;DHT22;244;48.508;9.052;2023-04-15T16:55:16;13.90;1.00
516;DHT22;244;48.508;9.052;2023-04-15T16:57:44;13.80;1.00
516;DHT22;244;48.508;9.052;2023-04-15T17:00:12;13.60;1.00
516;DHT22;244;48.508;9.052;2023-04-15T17:02:40;13.40;1.00
516;DHT22;244;48.508;9.052;2023-04-15T17:05:07;13.20;1.00
516;DHT22;244;48.508;9.052;2023-04-15T17:07:34;13.10;1.00
516;DHT22;244;48.508;9.052;2023-04-15T17:10:01;12.90;1.00
516;DHT22;244;48.508;9.052;2023-04-15T17:12:28;12.80;1.00
516;DHT22;244;48.508;9.052;2023-04-15T17:14:57;12.80;1.00
516;DHT22;244;48.508;9.052;2023-04-15T17:17:30;12.80;1.00
516;DHT22;244;48.508;9.052;2023-04-15T17:19:57;12.70;1.00
516;DHT22;244;48.508;9.052;2023-04-15T17:22:24;12.60;1.00
516;DHT22;244;48.508;9.052;2023-04-15T17:24:53;12.50;1.00